createdAt,value
2019-01-16T00:00:56.487Z,2.70
2019-01-16T00:03:51.731Z,2.50
2019-01-16T00:06:39.889Z,2.70
2019-01-16T00:09:32.313Z,2.70
2019-01-16T00:12:40.309Z,2.43
2019-01-16T00:15:18.276Z,2.60
2019-01-16T00:18:25.999Z,2.47
2019-01-16T00:21:15.757Z,2.60
2019-01-16T00:24:11.335Z,2.50
2019-01-16T00:27:10.202Z,2.80
2019-01-16T00:30:05.686Z,2.80
2019-01-16T00:32:59.267Z,2.50
2019-01-16T00:35:47.643Z,2.50
2019-01-16T00:38:36.123Z,2.50
2019-01-16T00:41:24.691Z,2.30
2019-01-16T00:44:12.790Z,2.53
2019-01-16T00:47:08.052Z,2.50
2019-01-16T00:49:57.984Z,2.70
2019-01-16T00:52:46.226Z,2.47
2019-01-16T00:55:30.660Z,2.40
2019-01-16T00:58:29.578Z,2.30
2019-01-16T01:01:27.791Z,2.50
2019-01-16T01:04:15.997Z,2.37
2019-01-16T01:07:05.627Z,2.40
2019-01-16T01:09:47.341Z,2.10
2019-01-16T01:12:51.920Z,2.00
2019-01-16T01:15:30.129Z,2.07
2019-01-16T01:18:32.443Z,2.30
2019-01-16T01:21:17.772Z,2.17
2019-01-16T01:23:59.793Z,2.20
2019-01-16T01:26:47.904Z,2.20
2019-01-16T01:29:27.492Z,2.10
2019-01-16T01:32:13.121Z,2.10
2019-01-16T01:35:01.444Z,2.20
2019-01-16T01:38:04.615Z,1.97
2019-01-16T01:41:00.207Z,2.10
2019-01-16T01:43:43.059Z,2.20
2019-01-16T01:46:26.268Z,2.07
2019-01-16T01:49:15.078Z,1.90
2019-01-16T01:52:00.140Z,2.00
2019-01-16T01:55:01.631Z,2.00
2019-01-16T01:57:56.915Z,1.97
2019-01-16T02:00:50.278Z,2.07
2019-01-16T02:03:46.056Z,2.10
2019-01-16T02:06:27.663Z,2.00
2019-01-16T02:09:11.872Z,1.97
2019-01-16T02:12:13.495Z,2.20
2019-01-16T02:15:01.727Z,2.00
2019-01-16T02:17:49.955Z,1.97
2019-01-16T02:20:42.848Z,1.90
2019-01-16T02:23:38.281Z,1.70
2019-01-16T02:26:29.544Z,1.90
2019-01-16T02:29:17.719Z,2.00
2019-01-16T02:32:09.807Z,2.10
2019-01-16T02:34:48.565Z,1.87
2019-01-16T02:37:43.656Z,1.87
2019-01-16T02:40:35.823Z,1.80
2019-01-16T02:43:24.932Z,1.77
2019-01-16T02:46:06.139Z,1.93
2019-01-16T02:48:56.161Z,1.93
2019-01-16T02:51:35.924Z,1.80
2019-01-16T02:54:24.116Z,1.90
2019-01-16T02:57:12.605Z,1.70
2019-01-16T03:00:01.575Z,1.83
2019-01-16T03:02:46.071Z,1.70
2019-01-16T03:05:41.369Z,1.80
2019-01-16T03:08:25.484Z,1.63
2019-01-16T03:11:06.899Z,1.80
2019-01-16T03:13:50.355Z,1.60
2019-01-16T03:16:39.848Z,1.80
2019-01-16T03:19:27.000Z,1.50
2019-01-16T03:22:16.471Z,1.70
2019-01-16T03:24:59.874Z,1.60
2019-01-16T03:27:50.300Z,1.70
2019-01-16T03:30:57.777Z,1.60
2019-01-16T03:33:49.968Z,1.53
2019-01-16T03:36:39.328Z,1.60
2019-01-16T03:39:38.279Z,1.70
2019-01-16T03:42:33.806Z,1.40
2019-01-16T03:45:35.879Z,1.43
2019-01-16T03:48:25.484Z,1.70
2019-01-16T03:51:11.202Z,1.70
2019-01-16T03:54:04.027Z,1.57
2019-01-16T03:57:09.003Z,1.50
2019-01-16T03:59:57.143Z,1.53
2019-01-16T04:02:50.033Z,1.43
2019-01-16T04:05:54.848Z,1.30
2019-01-16T04:08:42.931Z,1.37
2019-01-16T04:11:32.370Z,1.50
2019-01-16T04:14:20.404Z,1.50
2019-01-16T04:17:08.183Z,1.47
2019-01-16T04:20:01.227Z,1.30
2019-01-16T04:22:41.782Z,1.50
2019-01-16T04:25:34.451Z,1.70
2019-01-16T04:28:35.695Z,1.30
2019-01-16T04:31:17.723Z,1.33
2019-01-16T04:34:05.512Z,1.33
2019-01-16T04:37:00.978Z,1.40
2019-01-16T04:40:08.446Z,1.17
2019-01-16T04:42:54.116Z,1.30
2019-01-16T04:45:45.852Z,1.33
2019-01-16T04:48:35.611Z,1.40
2019-01-16T04:51:28.723Z,1.30
2019-01-16T04:54:33.271Z,1.20
2019-01-16T04:57:21.493Z,1.27
2019-01-16T05:00:17.849Z,1.13
2019-01-16T05:03:22.941Z,1.40
2019-01-16T05:06:20.128Z,1.17
2019-01-16T05:09:09.039Z,1.30
2019-01-16T05:12:08.267Z,1.23
2019-01-16T05:15:01.077Z,1.23
2019-01-16T05:18:09.296Z,1.00
2019-01-16T05:20:55.674Z,1.13
2019-01-16T05:23:51.295Z,1.20
2019-01-16T05:26:38.013Z,1.27
2019-01-16T05:29:45.588Z,1.30
2019-01-16T05:32:35.740Z,1.00
2019-01-16T05:35:19.242Z,1.10
2019-01-16T05:38:26.651Z,1.23
2019-01-16T05:41:16.297Z,1.00
2019-01-16T05:43:58.443Z,1.40
2019-01-16T05:47:00.026Z,1.30
2019-01-16T05:50:01.110Z,1.20
2019-01-16T05:52:53.437Z,1.10
2019-01-16T05:55:45.781Z,1.10
2019-01-16T05:58:33.986Z,1.27
2019-01-16T06:01:29.011Z,1.20
2019-01-16T06:04:23.463Z,1.30
2019-01-16T06:07:16.342Z,1.20
2019-01-16T06:10:04.443Z,1.20
2019-01-16T06:13:08.833Z,1.10
2019-01-16T06:16:04.230Z,1.10
2019-01-16T06:18:51.875Z,1.27
2019-01-16T06:21:39.481Z,1.20
2019-01-16T06:24:35.437Z,1.10
2019-01-16T06:27:23.411Z,1.20
2019-01-16T06:30:16.181Z,1.00
2019-01-16T06:33:04.112Z,1.20
2019-01-16T06:35:44.227Z,1.10
2019-01-16T06:38:27.570Z,1.20
2019-01-16T06:41:14.153Z,1.10
2019-01-16T06:44:01.861Z,1.20
2019-01-16T06:46:51.523Z,1.10
2019-01-16T06:49:44.520Z,1.23
2019-01-16T06:52:37.150Z,1.13
2019-01-16T06:55:25.889Z,1.20
2019-01-16T06:58:13.778Z,1.23
2019-01-16T07:01:00.774Z,1.23
2019-01-16T07:03:48.902Z,1.00
2019-01-16T07:06:27.281Z,1.10
2019-01-16T07:09:15.605Z,1.10
2019-01-16T07:11:59.337Z,1.17
2019-01-16T07:14:57.646Z,1.10
2019-01-16T07:17:37.492Z,1.20
2019-01-16T07:20:26.514Z,1.20
2019-01-16T07:23:15.717Z,1.30
2019-01-16T07:26:09.385Z,1.20
2019-01-16T07:29:07.267Z,1.03
2019-01-16T07:32:11.945Z,1.10
2019-01-16T07:34:52.405Z,1.10
2019-01-16T07:37:56.988Z,1.23
2019-01-16T07:40:40.722Z,1.10
2019-01-16T07:43:28.734Z,1.10
2019-01-16T07:46:16.111Z,0.93
2019-01-16T07:49:08.789Z,1.07
2019-01-16T07:51:58.014Z,1.10
2019-01-16T07:54:49.165Z,1.03
2019-01-16T07:57:38.721Z,1.00
2019-01-16T08:00:27.899Z,1.23
2019-01-16T08:03:26.494Z,1.00
2019-01-16T08:06:14.550Z,1.10
2019-01-16T08:09:04.536Z,1.00
2019-01-16T08:12:07.842Z,1.10
2019-01-16T08:14:55.789Z,1.07
2019-01-16T08:17:36.371Z,0.97
2019-01-16T08:20:25.124Z,1.10
2019-01-16T08:23:04.151Z,1.10
2019-01-16T08:25:56.388Z,1.05
2019-01-16T08:28:55.693Z,1.10
2019-01-16T08:31:38.402Z,1.20
2019-01-16T08:34:22.854Z,1.10
2019-01-16T08:37:12.193Z,0.90
2019-01-16T08:40:16.668Z,1.30
2019-01-16T08:43:11.662Z,1.10
2019-01-16T08:46:01.062Z,1.23
2019-01-16T08:48:50.273Z,1.07
2019-01-16T08:51:42.631Z,1.00
2019-01-16T08:54:34.850Z,1.10
2019-01-16T08:57:16.284Z,1.10
2019-01-16T09:00:00.203Z,1.20
2019-01-16T09:02:43.206Z,1.30
2019-01-16T09:05:41.408Z,1.23
2019-01-16T09:08:30.970Z,1.40
2019-01-16T09:11:23.313Z,1.50
2019-01-16T09:14:21.765Z,1.50
2019-01-16T09:17:12.749Z,1.50
2019-01-16T09:20:01.100Z,1.60
2019-01-16T09:22:54.512Z,1.63
2019-01-16T09:25:53.336Z,1.70
2019-01-16T09:28:58.282Z,1.70
2019-01-16T09:31:36.357Z,1.90
2019-01-16T09:34:14.287Z,1.50
2019-01-16T09:37:05.534Z,1.87
2019-01-16T09:40:02.762Z,1.80
2019-01-16T09:42:52.247Z,1.57
2019-01-16T09:45:59.693Z,1.90
2019-01-16T09:48:49.134Z,1.82
2019-01-16T09:51:38.458Z,1.93
2019-01-16T09:54:27.424Z,2.00
2019-01-16T09:57:15.053Z,1.70
2019-01-16T10:00:04.295Z,1.63
2019-01-16T10:02:56.236Z,1.90
2019-01-16T10:05:45.926Z,1.80
2019-01-16T10:08:33.999Z,1.87
2019-01-16T10:11:35.583Z,1.90
2019-01-16T10:14:42.701Z,1.80
2019-01-16T10:17:27.006Z,2.00
2019-01-16T10:20:14.388Z,2.00
2019-01-16T10:23:02.555Z,2.00
2019-01-16T10:25:54.671Z,2.00
2019-01-16T10:28:45.046Z,2.13
2019-01-16T10:31:28.287Z,2.20
2019-01-16T10:34:20.779Z,2.00
2019-01-16T10:37:18.621Z,2.33
2019-01-16T10:40:23.468Z,2.20
2019-01-16T10:43:21.790Z,2.13
2019-01-16T10:46:17.349Z,2.40
2019-01-16T10:49:19.069Z,2.20
2019-01-16T10:52:11.609Z,2.17
2019-01-16T10:55:13.079Z,2.60
2019-01-16T10:57:54.465Z,2.60
2019-01-16T11:00:46.783Z,2.43
2019-01-16T11:03:39.420Z,2.73
2019-01-16T11:06:21.163Z,2.60
2019-01-16T11:09:19.565Z,2.90
2019-01-16T11:12:07.215Z,2.70
2019-01-16T11:15:05.696Z,2.87
2019-01-16T11:18:10.075Z,2.93
2019-01-16T11:21:11.068Z,2.87
2019-01-16T11:23:54.603Z,2.80
2019-01-16T11:26:49.954Z,2.70
2019-01-16T11:29:54.089Z,3.33
2019-01-16T11:32:36.342Z,3.10
2019-01-16T11:35:38.342Z,3.30
2019-01-16T11:38:26.321Z,3.40
2019-01-16T11:41:07.814Z,3.43
2019-01-16T11:44:00.457Z,3.37
2019-01-16T11:46:48.151Z,3.63
2019-01-16T11:49:36.438Z,3.43
2019-01-16T11:52:28.337Z,3.23
2019-01-16T11:55:16.549Z,3.30
2019-01-16T11:58:11.446Z,3.40
2019-01-16T12:00:51.072Z,3.63
2019-01-16T12:03:38.865Z,3.53
2019-01-16T12:06:38.010Z,3.40
2019-01-16T12:09:41.951Z,3.20
2019-01-16T12:12:29.573Z,3.50
2019-01-16T12:15:19.571Z,3.43
2019-01-16T12:18:14.825Z,3.47
2019-01-16T12:20:57.292Z,3.50
2019-01-16T12:23:46.270Z,3.47
2019-01-16T12:26:38.770Z,3.63
2019-01-16T12:29:27.114Z,3.80
2019-01-16T12:32:19.571Z,3.60
2019-01-16T12:35:14.837Z,3.33
2019-01-16T12:38:04.533Z,4.00
2019-01-16T12:40:52.654Z,3.60
2019-01-16T12:43:45.265Z,3.70
2019-01-16T12:46:43.542Z,3.60
2019-01-16T12:49:31.835Z,3.70
2019-01-16T12:52:20.163Z,3.60
2019-01-16T12:55:08.477Z,3.93
2019-01-16T12:57:50.006Z,3.73
2019-01-16T13:00:37.896Z,4.23
2019-01-16T13:03:26.136Z,4.20
2019-01-16T13:06:14.268Z,4.27
2019-01-16T13:08:59.102Z,3.80
2019-01-16T13:11:47.202Z,4.10
2019-01-16T13:14:32.382Z,4.10
2019-01-16T13:17:20.942Z,4.17
2019-01-16T13:20:06.821Z,4.10
2019-01-16T13:23:01.548Z,4.23
2019-01-16T13:25:51.231Z,4.33
2019-01-16T13:28:34.451Z,3.90
2019-01-16T13:31:41.871Z,4.23
2019-01-16T13:34:31.558Z,4.37
2019-01-16T13:37:16.026Z,4.43
2019-01-16T13:40:08.608Z,4.57
2019-01-16T13:43:03.989Z,4.13
2019-01-16T13:45:52.354Z,4.43
2019-01-16T13:48:40.459Z,4.80
2019-01-16T13:51:32.771Z,4.10
2019-01-16T13:54:34.038Z,4.27
2019-01-16T13:57:41.763Z,4.07
2019-01-16T14:00:39.956Z,4.30
2019-01-16T14:03:25.213Z,4.50
2019-01-16T14:06:06.048Z,4.20
2019-01-16T14:08:55.486Z,4.10
2019-01-16T14:11:50.476Z,4.43
2019-01-16T14:14:35.528Z,4.37
2019-01-16T14:17:23.235Z,4.10
2019-01-16T14:20:04.862Z,4.27
2019-01-16T14:23:01.419Z,4.40
2019-01-16T14:26:09.191Z,4.33
2019-01-16T14:28:47.995Z,4.40
2019-01-16T14:31:30.647Z,4.00
2019-01-16T14:34:32.391Z,4.50
2019-01-16T14:37:21.916Z,4.20
2019-01-16T14:40:09.789Z,4.37
2019-01-16T14:43:00.274Z,4.30
2019-01-16T14:46:01.649Z,4.27
2019-01-16T14:48:49.528Z,4.47
2019-01-16T14:51:39.145Z,4.30
2019-01-16T14:54:28.846Z,4.43
2019-01-16T14:57:30.197Z,4.10
2019-01-16T15:00:32.123Z,4.20
2019-01-16T15:03:15.583Z,4.17
2019-01-16T15:06:11.475Z,4.70
2019-01-16T15:09:13.007Z,4.40
2019-01-16T15:12:17.578Z,4.20
2019-01-16T15:15:07.666Z,4.47
2019-01-16T15:18:00.436Z,4.13
2019-01-16T15:20:44.884Z,4.10
2019-01-16T15:23:45.427Z,4.30
2019-01-16T15:26:34.058Z,4.27
2019-01-16T15:29:22.006Z,4.20
2019-01-16T15:32:04.119Z,4.40
2019-01-16T15:34:52.191Z,4.60
2019-01-16T15:37:44.708Z,4.60
2019-01-16T15:40:37.849Z,4.03
2019-01-16T15:43:36.511Z,4.40
2019-01-16T15:46:15.964Z,4.00
2019-01-16T15:49:08.231Z,4.23
2019-01-16T15:51:57.882Z,4.07
2019-01-16T15:54:53.522Z,4.40
2019-01-16T15:57:57.861Z,4.47
2019-01-16T16:00:45.699Z,4.40
2019-01-16T16:03:38.329Z,4.73
2019-01-16T16:06:45.906Z,4.10
2019-01-16T16:09:25.604Z,4.20
2019-01-16T16:12:13.726Z,4.60
2019-01-16T16:15:12.136Z,4.50
2019-01-16T16:18:14.935Z,4.27
2019-01-16T16:21:19.298Z,5.00
2019-01-16T16:24:08.862Z,4.70
2019-01-16T16:26:56.835Z,4.70
2019-01-16T16:29:53.994Z,4.60
2019-01-16T16:32:43.724Z,4.27
2019-01-16T16:35:37.269Z,5.27
2019-01-16T16:38:26.071Z,4.37
2019-01-16T16:41:13.774Z,4.90
2019-01-16T16:44:03.165Z,4.37
2019-01-16T16:46:50.655Z,4.87
2019-01-16T16:49:37.995Z,4.90
2019-01-16T16:52:25.981Z,4.57
2019-01-16T16:55:14.352Z,4.87
2019-01-16T16:58:18.667Z,4.33
2019-01-16T17:01:10.814Z,4.50
2019-01-16T17:03:59.057Z,4.53
2019-01-16T17:06:43.075Z,4.60
2019-01-16T17:09:35.342Z,4.90
2019-01-16T17:12:23.159Z,4.83
2019-01-16T17:15:21.747Z,4.67
2019-01-16T17:18:14.630Z,4.63
2019-01-16T17:21:03.382Z,4.87
2019-01-16T17:23:54.539Z,4.40
2019-01-16T17:26:43.798Z,4.67
2019-01-16T17:29:48.003Z,4.50
2019-01-16T17:32:35.677Z,4.47
2019-01-16T17:35:24.242Z,4.70
2019-01-16T17:38:15.781Z,4.40
2019-01-16T17:40:58.735Z,4.93
2019-01-16T17:43:53.811Z,4.83
2019-01-16T17:46:41.610Z,4.43
2019-01-16T17:49:34.739Z,4.60
2019-01-16T17:52:39.685Z,4.43
2019-01-16T17:55:37.740Z,4.63
2019-01-16T17:58:26.039Z,5.07
2019-01-16T18:01:15.245Z,5.20
2019-01-16T18:04:16.752Z,5.00
2019-01-16T18:07:04.657Z,5.00
2019-01-16T18:09:56.954Z,5.13
2019-01-16T18:12:52.134Z,4.83
2019-01-16T18:15:40.339Z,4.90
2019-01-16T18:18:28.125Z,4.97
2019-01-16T18:21:20.832Z,5.10
2019-01-16T18:24:30.606Z,5.00
2019-01-16T18:27:32.967Z,4.63
2019-01-16T18:30:22.198Z,5.07
2019-01-16T18:33:10.400Z,5.03
2019-01-16T18:35:59.848Z,5.00
2019-01-16T18:38:49.914Z,5.23
2019-01-16T18:41:37.755Z,4.70
2019-01-16T18:44:29.911Z,4.60
2019-01-16T18:47:14.481Z,4.80
2019-01-16T18:50:02.381Z,5.37
2019-01-16T18:52:51.974Z,4.87
2019-01-16T18:55:44.641Z,5.17
2019-01-16T18:58:36.902Z,4.93
2019-01-16T19:01:26.289Z,4.93
2019-01-16T19:04:29.754Z,5.20
2019-01-16T19:07:32.598Z,4.87
2019-01-16T19:10:39.674Z,5.10
2019-01-16T19:13:33.557Z,4.80
2019-01-16T19:16:31.913Z,4.93
2019-01-16T19:19:19.595Z,5.10
2019-01-16T19:22:12.031Z,4.90
2019-01-16T19:25:10.377Z,5.20
2019-01-16T19:27:48.642Z,5.13
2019-01-16T19:30:33.030Z,5.30
2019-01-16T19:33:37.454Z,5.00
2019-01-16T19:36:27.268Z,5.30
2019-01-16T19:39:15.220Z,5.00
2019-01-16T19:42:17.513Z,4.90
2019-01-16T19:45:07.261Z,5.00
2019-01-16T19:48:03.842Z,5.00
2019-01-16T19:50:56.739Z,5.27
2019-01-16T19:53:49.434Z,5.50
2019-01-16T19:56:41.839Z,5.40
2019-01-16T19:59:34.063Z,5.50
2019-01-16T20:02:22.083Z,5.60
2019-01-16T20:05:17.729Z,5.70
2019-01-16T20:08:06.072Z,5.17
2019-01-16T20:11:04.413Z,5.67
2019-01-16T20:13:52.422Z,5.30
2019-01-16T20:16:56.508Z,5.23
2019-01-16T20:19:46.098Z,5.10
2019-01-16T20:22:45.278Z,5.93
2019-01-16T20:25:28.004Z,5.37
2019-01-16T20:28:26.319Z,5.37
2019-01-16T20:31:25.632Z,5.60
2019-01-16T20:34:13.702Z,5.57
2019-01-16T20:37:07.103Z,5.50
2019-01-16T20:40:14.383Z,5.83
2019-01-16T20:43:02.535Z,5.40
2019-01-16T20:45:51.893Z,5.37
2019-01-16T20:48:41.429Z,5.40
2019-01-16T20:51:29.386Z,5.30
2019-01-16T20:54:27.651Z,5.30
2019-01-16T20:57:13.546Z,5.70
2019-01-16T21:00:12.209Z,6.00
2019-01-16T21:03:02.789Z,5.83
2019-01-16T21:05:51.333Z,5.70
2019-01-16T21:08:30.612Z,6.30
2019-01-16T21:11:18.632Z,6.03
2019-01-16T21:14:10.956Z,6.20
2019-01-16T21:16:58.943Z,6.17
2019-01-16T21:19:49.258Z,5.77
2019-01-16T21:22:34.301Z,6.57
2019-01-16T21:25:28.766Z,6.20
2019-01-16T21:28:15.971Z,6.30
2019-01-16T21:31:05.539Z,6.43
2019-01-16T21:33:50.834Z,6.20
2019-01-16T21:36:43.026Z,6.43
2019-01-16T21:39:40.570Z,6.90
2019-01-16T21:42:30.202Z,6.77
2019-01-16T21:45:12.334Z,6.60
2019-01-16T21:48:04.867Z,6.13
2019-01-16T21:50:52.268Z,6.60
2019-01-16T21:53:40.585Z,6.60
2019-01-16T21:56:29.879Z,6.77
2019-01-16T21:59:17.895Z,6.87
2019-01-16T22:02:05.539Z,6.40
2019-01-16T22:05:03.934Z,6.90
2019-01-16T22:08:10.961Z,6.77
2019-01-16T22:11:18.796Z,6.80
2019-01-16T22:14:22.833Z,6.83
2019-01-16T22:17:10.834Z,6.77
2019-01-16T22:20:03.215Z,6.83
2019-01-16T22:22:52.855Z,6.80
2019-01-16T22:25:37.634Z,6.80
2019-01-16T22:28:26.522Z,6.97
2019-01-16T22:31:22.072Z,6.80
2019-01-16T22:34:05.863Z,6.87
2019-01-16T22:36:47.258Z,6.30
2019-01-16T22:39:46.427Z,6.50
2019-01-16T22:42:34.511Z,6.90
2019-01-16T22:45:28.452Z,6.40
2019-01-16T22:48:33.345Z,6.90
2019-01-16T22:51:21.943Z,6.77
2019-01-16T22:54:12.130Z,6.57
2019-01-16T22:57:00.127Z,7.00
2019-01-16T22:59:48.246Z,6.90
2019-01-16T23:02:36.636Z,6.93
2019-01-16T23:05:24.574Z,6.80
2019-01-16T23:08:06.886Z,6.90
2019-01-16T23:10:48.166Z,6.50
2019-01-16T23:13:27.712Z,6.67
2019-01-16T23:16:29.149Z,6.97
2019-01-16T23:19:16.739Z,6.80
2019-01-16T23:22:09.034Z,6.50
2019-01-16T23:24:58.261Z,6.37
2019-01-16T23:27:50.566Z,6.10
2019-01-16T23:30:31.944Z,6.67
2019-01-16T23:33:21.459Z,6.40
2019-01-16T23:36:09.533Z,6.73
2019-01-16T23:38:55.954Z,6.37
2019-01-16T23:41:47.721Z,6.50
2019-01-16T23:44:32.673Z,6.07
2019-01-16T23:47:24.801Z,6.43
2019-01-16T23:50:14.157Z,6.13
2019-01-16T23:52:58.197Z,6.40
2019-01-16T23:55:47.231Z,6.50
2019-01-16T23:58:30.715Z,6.33
